sensor_id;sensor_type;location;lat;lon;timestamp;P1;durP1;ratioP1;P2;durP2;ratioP2
4636;SDS011;2331;48.806;9.140;2023-04-03T00:00:06;3.88;;;2.40;;
4636;SDS011;2331;48.806;9.140;2023-04-03T00:02:35;3.90;;;2.50;;
4636;SDS011;2331;48.806;9.140;2023-04-03T00:05:01;3.58;;;2.67;;
4636;SDS011;2331;48.806;9.140;2023-04-03T00:07:29;3.05;;;2.50;;
4636;SDS011;2331;48.806;9.140;2023-04-03T00:09:57;4.30;;;2.90;;
4636;SDS011;2331;48.806;9.140;2023-04-03T00:12:24;4.63;;;2.40;;
4636;SDS011;2331;48.806;9.140;2023-04-03T00:14:51;5.82;;;2.70;;
4636;SDS011;2331;48.806;9.140;2023-04-03T00:17:17;4.80;;;2.70;;
4636;SDS011;2331;48.806;9.140;2023-04-03T00:19:44;5.20;;;2.60;;
4636;SDS011;2331;48.806;9.140;2023-04-03T00:22:11;4.20;;;2.63;;
4636;SDS011;2331;48.806;9.140;2023-04-03T00:24:37;3.63;;;2.10;;
4636;SDS011;2331;48.806;9.140;2023-04-03T00:27:05;3.08;;;2.63;;
4636;SDS011;2331;48.806;9.140;2023-04-03T00:29:32;3.58;;;2.65;;
4636;SDS011;2331;48.806;9.140;2023-04-03T00:31:59;4.35;;;2.22;;
4636;SDS011;2331;48.806;9.140;2023-04-03T00:34:26;3.30;;;2.63;;
4636;SDS011;2331;48.806;9.140;2023-04-03T00:36:52;6.00;;;2.72;;
4636;SDS011;2331;48.806;9.140;2023-04-03T00:39:19;3.58;;;2.65;;
4636;SDS011;2331;48.806;9.140;2023-04-03T00:41:46;3.85;;;2.70;;
4636;SDS011;2331;48.806;9.140;2023-04-03T00:47:23;3.72;;;2.78;;
4636;SDS011;2331;48.806;9.140;2023-04-03T00:49:51;3.40;;;2.47;;
4636;SDS011;2331;48.806;9.140;2023-04-03T00:52:21;4.88;;;2.60;;
4636;SDS011;2331;48.806;9.140;2023-04-03T00:54:51;2.92;;;2.35;;
4636;SDS011;2331;48.806;9.140;2023-04-03T00:57:20;2.92;;;2.20;;
4636;SDS011;2331;48.806;9.140;2023-04-03T00:59:48;4.47;;;2.83;;
4636;SDS011;2331;48.806;9.140;2023-04-03T01:02:19;5.40;;;2.70;;
4636;SDS011;2331;48.806;9.140;2023-04-03T01:04:48;4.75;;;2.65;;
4636;SDS011;2331;48.806;9.140;2023-04-03T01:07:15;4.15;;;2.40;;
4636;SDS011;2331;48.806;9.140;2023-04-03T01:09:44;4.47;;;2.50;;
4636;SDS011;2331;48.806;9.140;2023-04-03T01:12:13;5.93;;;2.40;;
4636;SDS011;2331;48.806;9.140;2023-04-03T01:14:41;4.40;;;2.45;;
4636;SDS011;2331;48.806;9.140;2023-04-03T01:17:23;4.78;;;2.50;;
4636;SDS011;2331;48.806;9.140;2023-04-03T01:20:03;3.75;;;2.63;;
4636;SDS011;2331;48.806;9.140;2023-04-03T01:22:53;3.67;;;2.55;;
4636;SDS011;2331;48.806;9.140;2023-04-03T01:25:25;2.90;;;2.20;;
4636;SDS011;2331;48.806;9.140;2023-04-03T01:27:52;3.63;;;2.50;;
4636;SDS011;2331;48.806;9.140;2023-04-03T01:30:21;4.15;;;2.80;;
4636;SDS011;2331;48.806;9.140;2023-04-03T01:32:53;3.95;;;2.30;;
4636;SDS011;2331;48.806;9.140;2023-04-03T01:35:19;5.32;;;3.10;;
4636;SDS011;2331;48.806;9.140;2023-04-03T01:37:46;4.90;;;2.50;;
4636;SDS011;2331;48.806;9.140;2023-04-03T01:40:13;5.97;;;3.00;;
4636;SDS011;2331;48.806;9.140;2023-04-03T01:42:39;6.07;;;2.50;;
4636;SDS011;2331;48.806;9.140;2023-04-03T01:45:06;2.80;;;2.30;;
4636;SDS011;2331;48.806;9.140;2023-04-03T01:47:34;3.25;;;2.20;;
4636;SDS011;2331;48.806;9.140;2023-04-03T01:50:02;5.32;;;2.65;;
4636;SDS011;2331;48.806;9.140;2023-04-03T01:52:29;3.60;;;2.55;;
4636;SDS011;2331;48.806;9.140;2023-04-03T01:54:56;3.33;;;2.20;;
4636;SDS011;2331;48.806;9.140;2023-04-03T01:57:22;5.45;;;2.95;;
4636;SDS011;2331;48.806;9.140;2023-04-03T01:59:49;3.92;;;2.63;;
4636;SDS011;2331;48.806;9.140;2023-04-03T02:02:16;5.85;;;2.75;;
4636;SDS011;2331;48.806;9.140;2023-04-03T02:04:45;4.10;;;3.33;;
4636;SDS011;2331;48.806;9.140;2023-04-03T02:07:13;4.03;;;2.47;;
4636;SDS011;2331;48.806;9.140;2023-04-03T02:09:39;4.57;;;2.70;;
4636;SDS011;2331;48.806;9.140;2023-04-03T02:12:06;3.65;;;2.35;;
4636;SDS011;2331;48.806;9.140;2023-04-03T02:14:33;4.00;;;2.50;;
4636;SDS011;2331;48.806;9.140;2023-04-03T02:16:59;5.65;;;2.80;;
4636;SDS011;2331;48.806;9.140;2023-04-03T02:19:29;4.20;;;2.70;;
4636;SDS011;2331;48.806;9.140;2023-04-03T02:21:56;4.20;;;2.45;;
4636;SDS011;2331;48.806;9.140;2023-04-03T02:24:24;5.25;;;3.03;;
4636;SDS011;2331;48.806;9.140;2023-04-03T02:26:51;2.97;;;2.20;;
4636;SDS011;2331;48.806;9.140;2023-04-03T02:29:18;2.85;;;2.10;;
4636;SDS011;2331;48.806;9.140;2023-04-03T02:31:44;2.88;;;2.30;;
4636;SDS011;2331;48.806;9.140;2023-04-03T02:34:11;4.20;;;2.70;;
4636;SDS011;2331;48.806;9.140;2023-04-03T02:36:38;4.45;;;2.53;;
4636;SDS011;2331;48.806;9.140;2023-04-03T02:39:04;4.00;;;2.55;;
4636;SDS011;2331;48.806;9.140;2023-04-03T02:41:33;5.63;;;3.05;;
4636;SDS011;2331;48.806;9.140;2023-04-03T02:44:00;7.28;;;2.50;;
4636;SDS011;2331;48.806;9.140;2023-04-03T02:46:27;4.13;;;2.60;;
4636;SDS011;2331;48.806;9.140;2023-04-03T02:48:54;3.03;;;2.00;;
4636;SDS011;2331;48.806;9.140;2023-04-03T02:51:20;5.80;;;2.90;;
4636;SDS011;2331;48.806;9.140;2023-04-03T02:53:47;6.72;;;3.10;;
4636;SDS011;2331;48.806;9.140;2023-04-03T02:56:14;4.32;;;3.05;;
4636;SDS011;2331;48.806;9.140;2023-04-03T02:58:43;4.40;;;2.50;;
4636;SDS011;2331;48.806;9.140;2023-04-03T03:01:10;7.70;;;2.80;;
4636;SDS011;2331;48.806;9.140;2023-04-03T03:03:37;5.13;;;2.95;;
4636;SDS011;2331;48.806;9.140;2023-04-03T03:06:04;3.00;;;2.30;;
4636;SDS011;2331;48.806;9.140;2023-04-03T03:08:32;2.97;;;2.22;;
4636;SDS011;2331;48.806;9.140;2023-04-03T03:11:01;5.47;;;2.30;;
4636;SDS011;2331;48.806;9.140;2023-04-03T03:13:29;5.20;;;2.72;;
4636;SDS011;2331;48.806;9.140;2023-04-03T03:15:57;6.07;;;2.78;;
4636;SDS011;2331;48.806;9.140;2023-04-03T03:18:24;4.85;;;2.50;;
4636;SDS011;2331;48.806;9.140;2023-04-03T03:20:51;4.97;;;3.00;;
4636;SDS011;2331;48.806;9.140;2023-04-03T03:23:17;5.40;;;2.78;;
4636;SDS011;2331;48.806;9.140;2023-04-03T03:25:44;4.00;;;2.70;;
4636;SDS011;2331;48.806;9.140;2023-04-03T03:28:11;2.72;;;2.05;;
4636;SDS011;2331;48.806;9.140;2023-04-03T03:30:37;5.22;;;2.63;;
4636;SDS011;2331;48.806;9.140;2023-04-03T03:33:05;3.40;;;2.17;;
4636;SDS011;2331;48.806;9.140;2023-04-03T03:35:32;3.70;;;2.30;;
4636;SDS011;2331;48.806;9.140;2023-04-03T03:37:59;4.47;;;2.45;;
4636;SDS011;2331;48.806;9.140;2023-04-03T03:40:26;2.63;;;1.90;;
4636;SDS011;2331;48.806;9.140;2023-04-03T03:42:53;4.40;;;2.72;;
4636;SDS011;2331;48.806;9.140;2023-04-03T03:45:19;3.10;;;2.20;;
4636;SDS011;2331;48.806;9.140;2023-04-03T03:47:46;5.90;;;3.10;;
4636;SDS011;2331;48.806;9.140;2023-04-03T03:50:14;5.47;;;2.33;;
4636;SDS011;2331;48.806;9.140;2023-04-03T03:52:41;3.15;;;2.13;;
4636;SDS011;2331;48.806;9.140;2023-04-03T03:55:07;3.45;;;2.13;;
4636;SDS011;2331;48.806;9.140;2023-04-03T03:57:34;4.28;;;2.03;;
4636;SDS011;2331;48.806;9.140;2023-04-03T04:00:01;4.18;;;2.40;;
4636;SDS011;2331;48.806;9.140;2023-04-03T04:02:28;5.40;;;2.47;;
4636;SDS011;2331;48.806;9.140;2023-04-03T04:04:55;2.47;;;2.10;;
4636;SDS011;2331;48.806;9.140;2023-04-03T04:07:23;3.45;;;1.92;;
4636;SDS011;2331;48.806;9.140;2023-04-03T04:09:52;4.10;;;2.60;;
4636;SDS011;2331;48.806;9.140;2023-04-03T04:12:19;4.65;;;2.80;;
4636;SDS011;2331;48.806;9.140;2023-04-03T04:14:46;4.50;;;2.10;;
4636;SDS011;2331;48.806;9.140;2023-04-03T04:17:15;3.33;;;2.35;;
4636;SDS011;2331;48.806;9.140;2023-04-03T04:19:42;2.97;;;2.45;;
4636;SDS011;2331;48.806;9.140;2023-04-03T04:22:09;4.20;;;2.30;;
4636;SDS011;2331;48.806;9.140;2023-04-03T04:24:37;6.00;;;2.65;;
4636;SDS011;2331;48.806;9.140;2023-04-03T04:27:04;7.30;;;2.72;;
4636;SDS011;2331;48.806;9.140;2023-04-03T04:29:31;4.45;;;2.58;;
4636;SDS011;2331;48.806;9.140;2023-04-03T04:32:00;3.38;;;2.30;;
4636;SDS011;2331;48.806;9.140;2023-04-03T04:34:27;4.15;;;2.17;;
4636;SDS011;2331;48.806;9.140;2023-04-03T04:36:54;2.95;;;2.50;;
4636;SDS011;2331;48.806;9.140;2023-04-03T04:39:20;2.35;;;1.90;;
4636;SDS011;2331;48.806;9.140;2023-04-03T04:41:48;4.50;;;2.20;;
4636;SDS011;2331;48.806;9.140;2023-04-03T04:44:15;5.32;;;2.60;;
4636;SDS011;2331;48.806;9.140;2023-04-03T04:46:42;5.20;;;2.55;;
4636;SDS011;2331;48.806;9.140;2023-04-03T04:49:08;3.80;;;2.40;;
4636;SDS011;2331;48.806;9.140;2023-04-03T04:51:35;5.90;;;2.30;;
4636;SDS011;2331;48.806;9.140;2023-04-03T04:54:02;3.88;;;2.35;;
4636;SDS011;2331;48.806;9.140;2023-04-03T04:56:28;2.83;;;1.85;;
4636;SDS011;2331;48.806;9.140;2023-04-03T04:58:56;3.00;;;2.20;;
4636;SDS011;2331;48.806;9.140;2023-04-03T05:01:23;3.22;;;2.38;;
4636;SDS011;2331;48.806;9.140;2023-04-03T05:03:50;3.35;;;2.42;;
4636;SDS011;2331;48.806;9.140;2023-04-03T05:06:16;2.55;;;2.10;;
4636;SDS011;2331;48.806;9.140;2023-04-03T05:08:43;4.53;;;2.35;;
4636;SDS011;2331;48.806;9.140;2023-04-03T05:11:10;2.85;;;2.10;;
4636;SDS011;2331;48.806;9.140;2023-04-03T05:13:36;4.03;;;2.70;;
4636;SDS011;2331;48.806;9.140;2023-04-03T05:16:05;5.80;;;2.35;;
4636;SDS011;2331;48.806;9.140;2023-04-03T05:18:32;3.83;;;2.20;;
4636;SDS011;2331;48.806;9.140;2023-04-03T05:20:58;5.55;;;1.83;;
4636;SDS011;2331;48.806;9.140;2023-04-03T05:23:25;3.15;;;2.33;;
4636;SDS011;2331;48.806;9.140;2023-04-03T05:25:52;4.85;;;2.65;;
4636;SDS011;2331;48.806;9.140;2023-04-03T05:28:19;3.83;;;2.50;;
4636;SDS011;2331;48.806;9.140;2023-04-03T05:30:47;3.15;;;2.25;;
4636;SDS011;2331;48.806;9.140;2023-04-03T05:33:21;4.32;;;2.40;;
4636;SDS011;2331;48.806;9.140;2023-04-03T05:35:48;2.53;;;2.17;;
4636;SDS011;2331;48.806;9.140;2023-04-03T05:38:15;4.47;;;2.50;;
4636;SDS011;2331;48.806;9.140;2023-04-03T05:40:42;3.50;;;2.72;;
4636;SDS011;2331;48.806;9.140;2023-04-03T05:43:09;3.15;;;2.50;;
4636;SDS011;2331;48.806;9.140;2023-04-03T05:45:35;3.72;;;2.50;;
4636;SDS011;2331;48.806;9.140;2023-04-03T05:48:02;4.53;;;2.60;;
4636;SDS011;2331;48.806;9.140;2023-04-03T05:50:31;5.18;;;2.92;;
4636;SDS011;2331;48.806;9.140;2023-04-03T05:52:57;5.32;;;2.40;;
4636;SDS011;2331;48.806;9.140;2023-04-03T05:55:25;4.80;;;2.70;;
4636;SDS011;2331;48.806;9.140;2023-04-03T05:57:51;4.63;;;2.15;;
4636;SDS011;2331;48.806;9.140;2023-04-03T06:00:18;2.38;;;2.15;;
4636;SDS011;2331;48.806;9.140;2023-04-03T06:02:46;3.97;;;2.75;;
4636;SDS011;2331;48.806;9.140;2023-04-03T06:05:12;5.90;;;3.00;;
4636;SDS011;2331;48.806;9.140;2023-04-03T06:07:40;4.72;;;2.35;;
4636;SDS011;2331;48.806;9.140;2023-04-03T06:10:10;4.72;;;2.67;;
4636;SDS011;2331;48.806;9.140;2023-04-03T06:12:37;4.15;;;2.58;;
4636;SDS011;2331;48.806;9.140;2023-04-03T06:15:04;3.28;;;2.38;;
4636;SDS011;2331;48.806;9.140;2023-04-03T06:17:33;2.70;;;2.13;;
4636;SDS011;2331;48.806;9.140;2023-04-03T06:20:00;4.05;;;2.45;;
4636;SDS011;2331;48.806;9.140;2023-04-03T06:22:26;2.75;;;2.25;;
4636;SDS011;2331;48.806;9.140;2023-04-03T06:24:56;3.15;;;2.03;;
4636;SDS011;2331;48.806;9.140;2023-04-03T06:27:23;3.70;;;2.20;;
4636;SDS011;2331;48.806;9.140;2023-04-03T06:29:50;5.03;;;2.38;;
4636;SDS011;2331;48.806;9.140;2023-04-03T06:32:16;3.55;;;2.20;;
4636;SDS011;2331;48.806;9.140;2023-04-03T06:34:43;4.07;;;2.67;;
4636;SDS011;2331;48.806;9.140;2023-04-03T06:37:10;3.25;;;2.17;;
4636;SDS011;2331;48.806;9.140;2023-04-03T06:39:40;5.63;;;2.47;;
4636;SDS011;2331;48.806;9.140;2023-04-03T06:42:08;4.05;;;2.50;;
4636;SDS011;2331;48.806;9.140;2023-04-03T06:44:36;3.95;;;2.65;;
4636;SDS011;2331;48.806;9.140;2023-04-03T06:47:02;3.83;;;2.30;;
4636;SDS011;2331;48.806;9.140;2023-04-03T06:49:29;3.13;;;2.40;;
4636;SDS011;2331;48.806;9.140;2023-04-03T06:51:56;4.80;;;2.03;;
4636;SDS011;2331;48.806;9.140;2023-04-03T06:54:23;5.72;;;2.55;;
4636;SDS011;2331;48.806;9.140;2023-04-03T06:56:50;4.53;;;2.20;;
4636;SDS011;2331;48.806;9.140;2023-04-03T06:59:18;5.05;;;2.63;;
4636;SDS011;2331;48.806;9.140;2023-04-03T07:01:45;2.90;;;2.10;;
4636;SDS011;2331;48.806;9.140;2023-04-03T07:04:12;4.57;;;2.70;;
4636;SDS011;2331;48.806;9.140;2023-04-03T07:06:38;4.28;;;2.20;;
4636;SDS011;2331;48.806;9.140;2023-04-03T07:09:06;4.93;;;2.50;;
4636;SDS011;2331;48.806;9.140;2023-04-03T07:11:34;4.15;;;2.50;;
4636;SDS011;2331;48.806;9.140;2023-04-03T07:14:01;5.38;;;2.85;;
4636;SDS011;2331;48.806;9.140;2023-04-03T07:16:29;4.43;;;2.67;;
4636;SDS011;2331;48.806;9.140;2023-04-03T07:18:56;6.22;;;2.80;;
4636;SDS011;2331;48.806;9.140;2023-04-03T07:21:23;6.50;;;2.80;;
4636;SDS011;2331;48.806;9.140;2023-04-03T07:23:50;7.82;;;3.25;;
4636;SDS011;2331;48.806;9.140;2023-04-03T07:26:17;3.95;;;2.58;;
4636;SDS011;2331;48.806;9.140;2023-04-03T07:28:45;2.90;;;2.00;;
4636;SDS011;2331;48.806;9.140;2023-04-03T07:31:13;4.95;;;2.70;;
4636;SDS011;2331;48.806;9.140;2023-04-03T07:33:42;8.63;;;3.00;;
4636;SDS011;2331;48.806;9.140;2023-04-03T07:36:10;4.10;;;2.50;;
4636;SDS011;2331;48.806;9.140;2023-04-03T07:38:40;6.28;;;2.65;;
4636;SDS011;2331;48.806;9.140;2023-04-03T07:41:07;5.30;;;2.72;;
4636;SDS011;2331;48.806;9.140;2023-04-03T07:43:38;5.90;;;2.70;;
4636;SDS011;2331;48.806;9.140;2023-04-03T07:46:05;4.75;;;2.22;;
4636;SDS011;2331;48.806;9.140;2023-04-03T07:48:32;6.32;;;3.25;;
4636;SDS011;2331;48.806;9.140;2023-04-03T07:51:01;3.95;;;2.65;;
4636;SDS011;2331;48.806;9.140;2023-04-03T07:53:29;3.30;;;2.28;;
4636;SDS011;2331;48.806;9.140;2023-04-03T07:55:56;4.32;;;2.38;;
4636;SDS011;2331;48.806;9.140;2023-04-03T07:58:24;4.53;;;2.30;;
4636;SDS011;2331;48.806;9.140;2023-04-03T08:00:50;9.95;;;3.10;;
4636;SDS011;2331;48.806;9.140;2023-04-03T08:03:17;5.20;;;2.75;;
4636;SDS011;2331;48.806;9.140;2023-04-03T08:05:45;5.07;;;2.95;;
4636;SDS011;2331;48.806;9.140;2023-04-03T08:08:15;5.35;;;2.70;;
4636;SDS011;2331;48.806;9.140;2023-04-03T08:10:43;8.52;;;2.63;;
4636;SDS011;2331;48.806;9.140;2023-04-03T08:13:13;5.18;;;2.92;;
4636;SDS011;2331;48.806;9.140;2023-04-03T08:15:40;3.35;;;2.00;;
4636;SDS011;2331;48.806;9.140;2023-04-03T08:18:06;4.97;;;2.50;;
4636;SDS011;2331;48.806;9.140;2023-04-03T08:20:33;5.18;;;2.60;;
4636;SDS011;2331;48.806;9.140;2023-04-03T08:23:00;3.40;;;2.20;;
4636;SDS011;2331;48.806;9.140;2023-04-03T08:25:28;4.10;;;2.40;;
4636;SDS011;2331;48.806;9.140;2023-04-03T08:27:55;4.28;;;2.45;;
4636;SDS011;2331;48.806;9.140;2023-04-03T08:30:22;5.88;;;2.58;;
4636;SDS011;2331;48.806;9.140;2023-04-03T08:32:49;4.20;;;2.80;;
4636;SDS011;2331;48.806;9.140;2023-04-03T08:35:16;3.83;;;2.65;;
4636;SDS011;2331;48.806;9.140;2023-04-03T08:37:42;5.63;;;2.65;;
4636;SDS011;2331;48.806;9.140;2023-04-03T08:40:12;6.40;;;2.45;;
4636;SDS011;2331;48.806;9.140;2023-04-03T08:42:44;3.60;;;2.47;;
4636;SDS011;2331;48.806;9.140;2023-04-03T08:45:18;4.47;;;2.17;;
4636;SDS011;2331;48.806;9.140;2023-04-03T08:47:52;4.30;;;2.30;;
4636;SDS011;2331;48.806;9.140;2023-04-03T08:50:26;5.45;;;2.65;;
4636;SDS011;2331;48.806;9.140;2023-04-03T08:52:59;3.90;;;2.40;;
4636;SDS011;2331;48.806;9.140;2023-04-03T08:55:31;5.40;;;2.80;;
4636;SDS011;2331;48.806;9.140;2023-04-03T08:58:02;4.03;;;2.65;;
4636;SDS011;2331;48.806;9.140;2023-04-03T09:00:34;4.30;;;2.50;;
4636;SDS011;2331;48.806;9.140;2023-04-03T09:03:11;4.95;;;2.70;;
4636;SDS011;2331;48.806;9.140;2023-04-03T09:05:39;5.00;;;2.40;;
4636;SDS011;2331;48.806;9.140;2023-04-03T09:08:13;5.95;;;2.80;;
4636;SDS011;2331;48.806;9.140;2023-04-03T09:10:47;5.15;;;2.60;;
4636;SDS011;2331;48.806;9.140;2023-04-03T09:13:19;4.03;;;2.80;;
4636;SDS011;2331;48.806;9.140;2023-04-03T09:15:54;4.38;;;2.55;;
4636;SDS011;2331;48.806;9.140;2023-04-03T09:18:23;6.00;;;2.17;;
4636;SDS011;2331;48.806;9.140;2023-04-03T09:20:56;3.58;;;2.38;;
4636;SDS011;2331;48.806;9.140;2023-04-03T09:23:34;4.50;;;2.10;;
4636;SDS011;2331;48.806;9.140;2023-04-03T09:26:09;5.50;;;2.60;;
4636;SDS011;2331;48.806;9.140;2023-04-03T09:28:44;3.97;;;2.15;;
4636;SDS011;2331;48.806;9.140;2023-04-03T09:31:14;3.65;;;1.90;;
4636;SDS011;2331;48.806;9.140;2023-04-03T09:33:46;3.20;;;2.33;;
4636;SDS011;2331;48.806;9.140;2023-04-03T09:36:13;4.80;;;2.08;;
4636;SDS011;2331;48.806;9.140;2023-04-03T09:39:03;3.05;;;2.38;;
4636;SDS011;2331;48.806;9.140;2023-04-03T09:41:30;4.78;;;2.22;;
4636;SDS011;2331;48.806;9.140;2023-04-03T09:43:59;3.17;;;1.70;;
4636;SDS011;2331;48.806;9.140;2023-04-03T09:46:28;7.10;;;2.17;;
4636;SDS011;2331;48.806;9.140;2023-04-03T09:48:57;3.50;;;1.80;;
4636;SDS011;2331;48.806;9.140;2023-04-03T09:51:26;3.33;;;2.53;;
4636;SDS011;2331;48.806;9.140;2023-04-03T09:53:54;5.20;;;2.58;;
4636;SDS011;2331;48.806;9.140;2023-04-03T09:56:23;3.53;;;2.15;;
4636;SDS011;2331;48.806;9.140;2023-04-03T09:58:52;3.05;;;2.15;;
4636;SDS011;2331;48.806;9.140;2023-04-03T10:01:42;3.38;;;1.98;;
4636;SDS011;2331;48.806;9.140;2023-04-03T10:04:10;4.68;;;2.10;;
4636;SDS011;2331;48.806;9.140;2023-04-03T10:06:39;3.15;;;1.95;;
4636;SDS011;2331;48.806;9.140;2023-04-03T10:09:15;2.75;;;1.50;;
4636;SDS011;2331;48.806;9.140;2023-04-03T10:14:39;3.60;;;2.00;;
4636;SDS011;2331;48.806;9.140;2023-04-03T10:17:12;4.75;;;2.30;;
4636;SDS011;2331;48.806;9.140;2023-04-03T10:19:45;7.53;;;2.45;;
4636;SDS011;2331;48.806;9.140;2023-04-03T10:22:17;6.43;;;2.10;;
4636;SDS011;2331;48.806;9.140;2023-04-03T10:24:52;5.53;;;2.17;;
4636;SDS011;2331;48.806;9.140;2023-04-03T10:27:27;5.90;;;2.33;;
4636;SDS011;2331;48.806;9.140;2023-04-03T10:30:07;3.42;;;2.00;;
4636;SDS011;2331;48.806;9.140;2023-04-03T10:32:51;4.75;;;2.22;;
4636;SDS011;2331;48.806;9.140;2023-04-03T10:35:27;5.05;;;2.58;;
4636;SDS011;2331;48.806;9.140;2023-04-03T10:38:04;3.47;;;2.10;;
4636;SDS011;2331;48.806;9.140;2023-04-03T10:40:43;5.30;;;1.92;;
4636;SDS011;2331;48.806;9.140;2023-04-03T10:43:17;5.53;;;2.08;;
4636;SDS011;2331;48.806;9.140;2023-04-03T10:45:55;2.97;;;1.90;;
4636;SDS011;2331;48.806;9.140;2023-04-03T10:48:30;4.85;;;2.88;;
4636;SDS011;2331;48.806;9.140;2023-04-03T10:51:08;4.05;;;2.00;;
4636;SDS011;2331;48.806;9.140;2023-04-03T10:53:44;4.10;;;2.50;;
4636;SDS011;2331;48.806;9.140;2023-04-03T10:56:17;3.70;;;2.15;;
4636;SDS011;2331;48.806;9.140;2023-04-03T10:58:52;5.00;;;2.20;;
4636;SDS011;2331;48.806;9.140;2023-04-03T11:01:24;4.72;;;2.22;;
4636;SDS011;2331;48.806;9.140;2023-04-03T11:03:57;5.03;;;2.05;;
4636;SDS011;2331;48.806;9.140;2023-04-03T11:06:28;2.72;;;1.80;;
4636;SDS011;2331;48.806;9.140;2023-04-03T11:09:02;5.53;;;1.83;;
4636;SDS011;2331;48.806;9.140;2023-04-03T11:11:34;4.28;;;1.88;;
4636;SDS011;2331;48.806;9.140;2023-04-03T11:14:05;2.22;;;1.35;;
4636;SDS011;2331;48.806;9.140;2023-04-03T11:16:43;4.35;;;2.00;;
4636;SDS011;2331;48.806;9.140;2023-04-03T11:19:14;2.17;;;1.40;;
4636;SDS011;2331;48.806;9.140;2023-04-03T11:21:50;3.20;;;1.85;;
4636;SDS011;2331;48.806;9.140;2023-04-03T11:24:22;2.58;;;1.70;;
4636;SDS011;2331;48.806;9.140;2023-04-03T11:26:51;3.35;;;1.50;;
4636;SDS011;2331;48.806;9.140;2023-04-03T11:29:22;2.60;;;1.60;;
4636;SDS011;2331;48.806;9.140;2023-04-03T11:34:47;2.75;;;1.52;;
4636;SDS011;2331;48.806;9.140;2023-04-03T11:37:16;3.58;;;1.70;;
4636;SDS011;2331;48.806;9.140;2023-04-03T11:39:50;2.80;;;1.45;;
4636;SDS011;2331;48.806;9.140;2023-04-03T11:42:24;5.13;;;1.85;;
4636;SDS011;2331;48.806;9.140;2023-04-03T11:45:16;3.00;;;1.90;;
4636;SDS011;2331;48.806;9.140;2023-04-03T11:47:51;5.15;;;1.75;;
4636;SDS011;2331;48.806;9.140;2023-04-03T11:53:29;3.40;;;1.83;;
4636;SDS011;2331;48.806;9.140;2023-04-03T11:56:01;3.85;;;1.65;;
4636;SDS011;2331;48.806;9.140;2023-04-03T11:59:21;2.88;;;1.75;;
4636;SDS011;2331;48.806;9.140;2023-04-03T12:01:50;4.13;;;2.15;;
4636;SDS011;2331;48.806;9.140;2023-04-03T12:04:19;4.50;;;1.83;;
4636;SDS011;2331;48.806;9.140;2023-04-03T12:12:56;7.22;;;1.73;;
4636;SDS011;2331;48.806;9.140;2023-04-03T12:24:36;3.45;;;1.77;;
4636;SDS011;2331;48.806;9.140;2023-04-03T12:27:09;5.53;;;1.90;;
4636;SDS011;2331;48.806;9.140;2023-04-03T12:29:50;5.47;;;2.30;;
4636;SDS011;2331;48.806;9.140;2023-04-03T12:32:26;2.17;;;1.70;;
4636;SDS011;2331;48.806;9.140;2023-04-03T12:35:16;4.88;;;1.63;;
4636;SDS011;2331;48.806;9.140;2023-04-03T12:37:57;5.15;;;1.95;;
4636;SDS011;2331;48.806;9.140;2023-04-03T12:40:47;3.03;;;1.50;;
4636;SDS011;2331;48.806;9.140;2023-04-03T12:43:25;2.17;;;1.63;;
4636;SDS011;2331;48.806;9.140;2023-04-03T12:46:09;2.92;;;1.67;;
4636;SDS011;2331;48.806;9.140;2023-04-03T12:48:46;4.55;;;1.85;;
4636;SDS011;2331;48.806;9.140;2023-04-03T12:51:14;2.90;;;1.80;;
4636;SDS011;2331;48.806;9.140;2023-04-03T12:53:47;3.05;;;1.85;;
4636;SDS011;2331;48.806;9.140;2023-04-03T12:56:19;4.15;;;1.63;;
4636;SDS011;2331;48.806;9.140;2023-04-03T12:58:48;2.15;;;1.60;;
4636;SDS011;2331;48.806;9.140;2023-04-03T13:01:16;2.47;;;1.60;;
4636;SDS011;2331;48.806;9.140;2023-04-03T13:03:47;3.42;;;2.05;;
4636;SDS011;2331;48.806;9.140;2023-04-03T13:06:17;3.95;;;1.88;;
4636;SDS011;2331;48.806;9.140;2023-04-03T13:08:50;2.33;;;1.50;;
4636;SDS011;2331;48.806;9.140;2023-04-03T13:11:17;2.70;;;1.80;;
4636;SDS011;2331;48.806;9.140;2023-04-03T13:13:54;3.00;;;1.58;;
4636;SDS011;2331;48.806;9.140;2023-04-03T13:16:22;4.68;;;2.17;;
4636;SDS011;2331;48.806;9.140;2023-04-03T13:18:50;2.53;;;1.80;;
4636;SDS011;2331;48.806;9.140;2023-04-03T13:21:18;5.22;;;1.88;;
4636;SDS011;2331;48.806;9.140;2023-04-03T13:23:50;6.55;;;2.45;;
4636;SDS011;2331;48.806;9.140;2023-04-03T13:26:20;4.50;;;1.88;;
4636;SDS011;2331;48.806;9.140;2023-04-03T13:28:49;6.60;;;1.90;;
4636;SDS011;2331;48.806;9.140;2023-04-03T13:31:18;4.57;;;1.77;;
4636;SDS011;2331;48.806;9.140;2023-04-03T13:33:53;4.20;;;1.90;;
4636;SDS011;2331;48.806;9.140;2023-04-03T13:36:23;3.03;;;1.83;;
4636;SDS011;2331;48.806;9.140;2023-04-03T13:39:02;3.10;;;1.70;;
4636;SDS011;2331;48.806;9.140;2023-04-03T13:41:32;5.32;;;1.80;;
4636;SDS011;2331;48.806;9.140;2023-04-03T13:44:17;3.80;;;2.20;;
4636;SDS011;2331;48.806;9.140;2023-04-03T13:46:52;4.47;;;1.80;;
4636;SDS011;2331;48.806;9.140;2023-04-03T13:49:21;4.25;;;1.80;;
4636;SDS011;2331;48.806;9.140;2023-04-03T13:51:54;3.28;;;1.77;;
4636;SDS011;2331;48.806;9.140;2023-04-03T13:54:23;4.93;;;2.03;;
4636;SDS011;2331;48.806;9.140;2023-04-03T13:56:52;3.50;;;1.80;;
4636;SDS011;2331;48.806;9.140;2023-04-03T13:59:23;2.72;;;1.50;;
4636;SDS011;2331;48.806;9.140;2023-04-03T14:01:53;3.47;;;1.40;;
4636;SDS011;2331;48.806;9.140;2023-04-03T14:04:23;3.95;;;1.63;;
4636;SDS011;2331;48.806;9.140;2023-04-03T14:06:51;2.58;;;1.48;;
4636;SDS011;2331;48.806;9.140;2023-04-03T14:09:18;2.13;;;1.52;;
4636;SDS011;2331;48.806;9.140;2023-04-03T14:11:48;3.55;;;1.80;;
4636;SDS011;2331;48.806;9.140;2023-04-03T14:14:17;2.97;;;1.77;;
4636;SDS011;2331;48.806;9.140;2023-04-03T14:16:47;2.75;;;1.80;;
4636;SDS011;2331;48.806;9.140;2023-04-03T14:19:19;5.43;;;1.88;;
4636;SDS011;2331;48.806;9.140;2023-04-03T14:21:48;4.78;;;1.90;;
4636;SDS011;2331;48.806;9.140;2023-04-03T14:24:16;3.05;;;1.52;;
4636;SDS011;2331;48.806;9.140;2023-04-03T14:26:44;4.25;;;2.00;;
4636;SDS011;2331;48.806;9.140;2023-04-03T14:29:13;3.97;;;1.85;;
4636;SDS011;2331;48.806;9.140;2023-04-03T14:31:40;6.20;;;1.85;;
4636;SDS011;2331;48.806;9.140;2023-04-03T14:34:09;4.15;;;2.15;;
4636;SDS011;2331;48.806;9.140;2023-04-03T14:36:36;4.50;;;1.83;;
4636;SDS011;2331;48.806;9.140;2023-04-03T14:39:04;3.10;;;1.90;;
4636;SDS011;2331;48.806;9.140;2023-04-03T14:41:34;3.55;;;1.70;;
4636;SDS011;2331;48.806;9.140;2023-04-03T14:44:02;4.15;;;1.83;;
4636;SDS011;2331;48.806;9.140;2023-04-03T14:46:31;4.57;;;1.80;;
4636;SDS011;2331;48.806;9.140;2023-04-03T14:49:00;3.92;;;1.80;;
4636;SDS011;2331;48.806;9.140;2023-04-03T14:51:27;2.83;;;2.03;;
4636;SDS011;2331;48.806;9.140;2023-04-03T14:53:53;3.63;;;1.90;;
4636;SDS011;2331;48.806;9.140;2023-04-03T14:56:21;3.00;;;1.90;;
4636;SDS011;2331;48.806;9.140;2023-04-03T14:58:52;3.20;;;1.77;;
4636;SDS011;2331;48.806;9.140;2023-04-03T15:01:21;3.25;;;1.75;;
4636;SDS011;2331;48.806;9.140;2023-04-03T15:03:50;2.50;;;1.77;;
4636;SDS011;2331;48.806;9.140;2023-04-03T15:06:16;2.55;;;1.55;;
4636;SDS011;2331;48.806;9.140;2023-04-03T15:08:43;3.58;;;1.90;;
4636;SDS011;2331;48.806;9.140;2023-04-03T15:11:12;3.45;;;1.60;;
4636;SDS011;2331;48.806;9.140;2023-04-03T15:13:40;6.40;;;2.08;;
4636;SDS011;2331;48.806;9.140;2023-04-03T15:16:11;2.45;;;1.98;;
4636;SDS011;2331;48.806;9.140;2023-04-03T15:18:41;2.17;;;1.40;;
4636;SDS011;2331;48.806;9.140;2023-04-03T15:21:09;3.80;;;1.85;;
4636;SDS011;2331;48.806;9.140;2023-04-03T15:23:36;3.55;;;1.98;;
4636;SDS011;2331;48.806;9.140;2023-04-03T15:26:03;3.40;;;1.92;;
4636;SDS011;2331;48.806;9.140;2023-04-03T15:28:31;3.63;;;1.90;;
4636;SDS011;2331;48.806;9.140;2023-04-03T15:31:01;4.07;;;2.03;;
4636;SDS011;2331;48.806;9.140;2023-04-03T15:33:28;3.70;;;1.77;;
4636;SDS011;2331;48.806;9.140;2023-04-03T15:35:55;5.30;;;1.80;;
4636;SDS011;2331;48.806;9.140;2023-04-03T15:38:23;3.08;;;1.70;;
4636;SDS011;2331;48.806;9.140;2023-04-03T15:40:50;3.33;;;1.73;;
4636;SDS011;2331;48.806;9.140;2023-04-03T15:43:17;4.95;;;1.80;;
4636;SDS011;2331;48.806;9.140;2023-04-03T15:45:44;4.18;;;1.92;;
4636;SDS011;2331;48.806;9.140;2023-04-03T15:48:11;3.13;;;1.90;;
4636;SDS011;2331;48.806;9.140;2023-04-03T15:50:38;2.72;;;1.65;;
4636;SDS011;2331;48.806;9.140;2023-04-03T15:53:05;4.45;;;1.60;;
4636;SDS011;2331;48.806;9.140;2023-04-03T15:55:35;2.33;;;1.80;;